createdAt,value
2018-07-09T00:02:19.046Z,7.50
2018-07-09T00:04:47.420Z,8.63
2018-07-09T00:07:15.768Z,9.03
2018-07-09T00:09:44.238Z,7.60
2018-07-09T00:12:12.606Z,8.20
2018-07-09T00:14:40.891Z,7.22
2018-07-09T00:17:10.285Z,8.93
2018-07-09T00:19:39.581Z,7.87
2018-07-09T00:22:08.206Z,8.33
2018-07-09T00:24:37.392Z,7.45
2018-07-09T00:27:05.882Z,7.22
2018-07-09T00:29:34.232Z,8.00
2018-07-09T00:32:02.509Z,7.78
2018-07-09T00:34:31.089Z,8.58
2018-07-09T00:36:59.329Z,7.62
2018-07-09T00:39:28.821Z,8.30
2018-07-09T00:41:58.382Z,8.15
2018-07-09T00:44:26.790Z,8.13
2018-07-09T00:46:55.256Z,8.05
2018-07-09T00:49:23.634Z,7.78
2018-07-09T00:51:52.823Z,8.33
2018-07-09T00:54:21.259Z,8.10
2018-07-09T00:56:50.902Z,7.83
2018-07-09T00:59:21.184Z,7.95
2018-07-09T01:01:50.801Z,8.93
2018-07-09T01:04:22.836Z,7.87
2018-07-09T01:06:51.883Z,7.55
2018-07-09T01:09:20.550Z,9.00
2018-07-09T01:11:51.657Z,8.03
2018-07-09T01:14:21.118Z,7.87
2018-07-09T01:16:50.463Z,8.80
2018-07-09T01:19:20.282Z,8.73
2018-07-09T01:21:50.699Z,8.88
2018-07-09T01:24:20.389Z,8.05
2018-07-09T01:26:49.326Z,7.87
2018-07-09T01:29:18.014Z,8.70
2018-07-09T01:31:46.303Z,8.73
2018-07-09T01:34:14.481Z,8.88
2018-07-09T01:36:43.069Z,8.65
2018-07-09T01:39:12.111Z,8.78
2018-07-09T01:41:40.416Z,8.58
2018-07-09T01:44:12.729Z,8.05
2018-07-09T01:46:41.242Z,8.65
2018-07-09T01:49:09.523Z,9.18
2018-07-09T01:51:38.420Z,7.80
2018-07-09T01:54:06.639Z,7.55
2018-07-09T01:56:34.857Z,7.75
2018-07-09T01:59:03.202Z,8.73
2018-07-09T02:01:32.297Z,8.78
2018-07-09T02:04:01.249Z,8.45
2018-07-09T02:06:29.975Z,8.63
2018-07-09T02:09:02.961Z,8.75
2018-07-09T02:11:33.072Z,8.20
2018-07-09T02:14:02.301Z,7.80
2018-07-09T02:16:31.976Z,8.40
2018-07-09T02:19:01.588Z,8.65
2018-07-09T02:21:30.732Z,8.23
2018-07-09T02:23:59.747Z,7.70
2018-07-09T02:26:27.964Z,7.45
2018-07-09T02:28:56.228Z,7.95
2018-07-09T02:31:24.496Z,7.25
2018-07-09T02:33:52.728Z,8.13
2018-07-09T02:36:21.094Z,8.68
2018-07-09T02:38:49.428Z,7.50
2018-07-09T02:41:17.679Z,7.10
2018-07-09T02:43:45.881Z,7.37
2018-07-09T02:46:14.052Z,7.60
2018-07-09T02:48:42.404Z,7.83
2018-07-09T02:51:10.713Z,7.70
2018-07-09T02:53:39.004Z,7.33
2018-07-09T02:56:07.193Z,7.67
2018-07-09T02:58:35.428Z,8.78
2018-07-09T03:01:03.634Z,7.87
2018-07-09T03:03:32.486Z,6.70
2018-07-09T03:06:00.786Z,7.60
2018-07-09T03:08:29.137Z,9.03
2018-07-09T03:10:57.325Z,8.80
2018-07-09T03:13:25.564Z,8.48
2018-07-09T03:15:53.872Z,8.23
2018-07-09T03:18:22.873Z,9.03
2018-07-09T03:20:52.688Z,8.03
2018-07-09T03:23:20.972Z,8.20
2018-07-09T03:25:50.456Z,9.58
2018-07-09T03:28:18.765Z,10.53
2018-07-09T03:30:47.017Z,12.13
2018-07-09T03:33:15.251Z,10.32
2018-07-09T03:35:43.461Z,11.30
2018-07-09T03:38:11.963Z,11.10
2018-07-09T03:40:40.646Z,12.03
2018-07-09T03:43:09.275Z,12.43
2018-07-09T03:45:37.555Z,11.70
2018-07-09T03:48:05.917Z,12.28
2018-07-09T03:50:34.111Z,10.80
2018-07-09T03:53:02.787Z,11.20
2018-07-09T03:55:31.160Z,11.55
2018-07-09T03:57:59.495Z,11.63
2018-07-09T04:00:27.844Z,9.13
2018-07-09T04:02:56.101Z,10.93
2018-07-09T04:05:24.326Z,10.30
2018-07-09T04:07:52.663Z,10.53
2018-07-09T04:10:21.004Z,10.50
2018-07-09T04:12:49.620Z,10.05
2018-07-09T04:15:17.808Z,9.63
2018-07-09T04:17:46.035Z,10.28
2018-07-09T04:20:14.279Z,9.48
2018-07-09T04:22:42.544Z,9.38
2018-07-09T04:25:11.134Z,9.95
2018-07-09T04:27:39.457Z,11.00
2018-07-09T04:30:07.686Z,11.20
2018-07-09T04:32:35.971Z,9.88
2018-07-09T04:35:04.178Z,10.20
2018-07-09T04:37:32.622Z,11.28
2018-07-09T04:40:01.042Z,10.72
2018-07-09T04:42:29.296Z,11.40
2018-07-09T04:44:57.547Z,11.70
2018-07-09T04:47:25.875Z,11.78
2018-07-09T04:49:54.108Z,10.72
2018-07-09T04:52:22.368Z,11.95
2018-07-09T04:54:50.628Z,10.53
2018-07-09T04:57:18.850Z,11.43
2018-07-09T04:59:47.114Z,12.60
2018-07-09T05:02:15.399Z,12.35
2018-07-09T05:04:43.760Z,10.98
2018-07-09T05:07:12.040Z,11.48
2018-07-09T05:09:40.205Z,11.20
2018-07-09T05:12:08.495Z,10.98
2018-07-09T05:14:36.706Z,11.10
2018-07-09T05:17:04.928Z,11.85
2018-07-09T05:19:33.197Z,11.20
2018-07-09T05:22:01.425Z,11.15
2018-07-09T05:24:29.804Z,10.53
2018-07-09T05:26:58.102Z,10.30
2018-07-09T05:29:26.350Z,10.98
2018-07-09T05:31:54.591Z,10.40
2018-07-09T05:34:22.777Z,10.00
2018-07-09T05:36:51.069Z,10.82
2018-07-09T05:39:19.302Z,9.55
2018-07-09T05:41:47.544Z,9.70
2018-07-09T05:44:16.130Z,10.40
2018-07-09T05:46:44.336Z,9.70
2018-07-09T05:49:12.727Z,10.72
2018-07-09T05:51:41.008Z,9.45
2018-07-09T05:54:09.301Z,9.23
2018-07-09T05:56:37.625Z,10.18
2018-07-09T05:59:06.038Z,10.68
2018-07-09T06:01:34.359Z,10.23
2018-07-09T06:04:02.683Z,9.30
2018-07-09T06:06:30.980Z,9.13
2018-07-09T06:08:59.732Z,9.25
2018-07-09T06:11:28.562Z,8.78
2018-07-09T06:13:58.941Z,10.00
2018-07-09T06:16:27.860Z,9.80
2018-07-09T06:18:58.913Z,9.65
2018-07-09T06:21:28.926Z,9.63
2018-07-09T06:23:57.164Z,10.35
2018-07-09T06:26:25.435Z,9.20
2018-07-09T06:28:53.826Z,9.55
2018-07-09T06:31:22.188Z,8.28
2018-07-09T06:33:50.380Z,10.08
2018-07-09T06:36:18.564Z,9.27
2018-07-09T06:38:48.266Z,9.60
2018-07-09T06:41:17.541Z,10.03
2018-07-09T06:43:45.902Z,9.08
2018-07-09T06:46:14.101Z,8.55
2018-07-09T06:48:42.319Z,8.78
2018-07-09T06:51:10.672Z,8.80
2018-07-09T06:53:39.068Z,7.50
2018-07-09T06:56:07.837Z,8.93
2018-07-09T06:58:36.132Z,7.45
2018-07-09T07:01:04.630Z,8.20
2018-07-09T07:03:32.849Z,6.97
2018-07-09T07:06:01.049Z,6.83
2018-07-09T07:08:29.312Z,7.07
2018-07-09T07:10:57.953Z,7.60
2018-07-09T07:13:30.940Z,7.03
2018-07-09T07:16:00.712Z,6.40
2018-07-09T07:18:40.847Z,7.33
2018-07-09T07:21:11.985Z,6.30
2018-07-09T07:23:41.891Z,6.80
2018-07-09T07:26:11.305Z,6.10
2018-07-09T07:28:41.317Z,6.87
2018-07-09T07:31:09.614Z,6.27
2018-07-09T07:33:41.388Z,6.60
2018-07-09T07:36:10.100Z,6.17
2018-07-09T07:38:38.286Z,5.27
2018-07-09T07:41:06.548Z,5.90
2018-07-09T07:43:34.753Z,5.53
2018-07-09T07:46:03.084Z,5.23
2018-07-09T07:48:31.292Z,6.10
2018-07-09T07:50:59.595Z,5.70
2018-07-09T07:53:29.181Z,5.73
2018-07-09T07:55:57.597Z,5.50
2018-07-09T07:58:26.060Z,5.30
2018-07-09T08:00:54.292Z,5.30
2018-07-09T08:03:25.249Z,5.60
2018-07-09T08:05:53.457Z,4.73
2018-07-09T08:08:21.686Z,3.80
2018-07-09T08:10:50.161Z,3.97
2018-07-09T08:13:28.502Z,4.70
2018-07-09T08:15:46.864Z,5.07
2018-07-09T08:18:15.168Z,5.47
2018-07-09T08:20:43.357Z,5.13
2018-07-09T08:23:11.616Z,4.10
2018-07-09T08:25:40.308Z,4.07
2018-07-09T08:28:09.034Z,4.50
2018-07-09T08:30:37.655Z,4.20
2018-07-09T08:33:05.892Z,4.47
2018-07-09T08:35:34.108Z,4.20
2018-07-09T08:38:02.427Z,4.33
2018-07-09T08:40:30.892Z,3.47
2018-07-09T08:42:59.124Z,2.93
2018-07-09T08:45:31.905Z,3.73
2018-07-09T08:48:00.119Z,3.27
2018-07-09T08:50:31.905Z,3.83
2018-07-09T08:53:02.024Z,3.40
2018-07-09T08:55:30.347Z,3.20
2018-07-09T08:58:02.249Z,3.30
2018-07-09T09:00:30.992Z,3.20
2018-07-09T09:02:59.552Z,3.60
2018-07-09T09:05:31.629Z,2.90
2018-07-09T09:08:00.051Z,3.17
2018-07-09T09:10:28.341Z,3.50
2018-07-09T09:12:58.061Z,3.40
2018-07-09T09:15:27.947Z,3.00
2018-07-09T09:17:56.409Z,3.60
2018-07-09T09:20:24.625Z,4.63
2018-07-09T09:22:53.066Z,4.40
2018-07-09T09:25:21.297Z,3.93
2018-07-09T09:27:51.256Z,4.10
2018-07-09T09:30:21.359Z,4.30
2018-07-09T09:32:50.631Z,3.10
2018-07-09T09:35:19.600Z,3.50
2018-07-09T09:37:47.841Z,3.27
2018-07-09T09:40:16.317Z,3.63
2018-07-09T09:42:44.873Z,2.93
2018-07-09T09:45:13.024Z,2.80
2018-07-09T09:47:41.422Z,3.90
2018-07-09T09:50:09.891Z,2.47
2018-07-09T09:52:39.249Z,2.87
2018-07-09T09:55:07.811Z,2.73
2018-07-09T09:57:36.383Z,2.53
2018-07-09T10:00:05.085Z,3.00
2018-07-09T10:02:33.379Z,2.93
2018-07-09T10:05:01.578Z,2.70
2018-07-09T10:07:29.775Z,2.57
2018-07-09T10:09:59.941Z,3.47
2018-07-09T10:12:31.293Z,2.23
2018-07-09T10:15:03.404Z,3.10
2018-07-09T10:17:31.557Z,3.70
2018-07-09T10:20:03.178Z,3.00
2018-07-09T10:22:31.463Z,2.70
2018-07-09T10:25:00.096Z,2.60
2018-07-09T10:27:30.251Z,2.50
2018-07-09T10:29:59.644Z,3.23
2018-07-09T10:32:30.611Z,2.90
2018-07-09T10:35:00.725Z,3.27
2018-07-09T10:37:31.113Z,2.67
2018-07-09T10:40:01.066Z,2.97
2018-07-09T10:42:30.661Z,2.70
2018-07-09T10:45:02.461Z,2.50
2018-07-09T10:47:38.666Z,2.30
2018-07-09T10:50:07.499Z,3.03
2018-07-09T10:52:36.405Z,3.00
2018-07-09T10:55:04.964Z,2.53
2018-07-09T10:57:33.213Z,2.33
2018-07-09T11:00:01.405Z,3.10
2018-07-09T11:02:30.274Z,3.00
2018-07-09T11:04:58.536Z,2.73
2018-07-09T11:07:26.761Z,2.77
2018-07-09T11:09:55.322Z,1.93
2018-07-09T11:12:23.516Z,2.27
2018-07-09T11:14:51.721Z,1.97
2018-07-09T11:17:19.929Z,2.17
2018-07-09T11:19:48.737Z,2.60
2018-07-09T11:22:18.226Z,2.37
2018-07-09T11:24:46.779Z,2.33
2018-07-09T11:27:18.772Z,2.47
2018-07-09T11:29:50.510Z,2.80
2018-07-09T11:32:22.129Z,1.30
2018-07-09T11:34:50.685Z,1.90
2018-07-09T11:37:19.613Z,1.83
2018-07-09T11:39:47.969Z,2.20
2018-07-09T11:42:16.786Z,1.70
2018-07-09T11:44:45.113Z,2.50
2018-07-09T11:47:13.364Z,2.40
2018-07-09T11:49:41.676Z,2.30
2018-07-09T11:52:10.466Z,2.23
2018-07-09T11:54:40.260Z,2.40
2018-07-09T11:57:08.704Z,2.40
2018-07-09T11:59:41.496Z,1.47
2018-07-09T12:02:11.025Z,2.73
2018-07-09T12:04:40.756Z,2.53
2018-07-09T12:07:09.813Z,2.97
2018-07-09T12:09:40.978Z,3.43
2018-07-09T12:12:10.093Z,3.00
2018-07-09T12:14:40.142Z,2.50
2018-07-09T12:17:12.048Z,1.63
2018-07-09T12:19:41.396Z,1.90
2018-07-09T12:22:11.646Z,2.57
2018-07-09T12:24:40.326Z,1.93
2018-07-09T12:27:09.719Z,2.40
2018-07-09T12:29:42.507Z,1.87
2018-07-09T12:32:11.537Z,2.13
2018-07-09T12:34:43.176Z,2.97
2018-07-09T12:37:11.699Z,2.57
2018-07-09T12:39:40.365Z,2.20
2018-07-09T12:42:10.795Z,2.80
2018-07-09T12:44:40.385Z,3.20
2018-07-09T12:47:11.993Z,3.47
2018-07-09T12:49:40.249Z,2.63
2018-07-09T12:52:12.957Z,2.77
2018-07-09T12:54:41.173Z,2.20
2018-07-09T12:57:11.264Z,2.73
2018-07-09T12:59:40.089Z,2.70
2018-07-09T13:02:10.285Z,2.73
2018-07-09T13:04:38.577Z,2.77
2018-07-09T13:07:07.079Z,2.13
2018-07-09T13:09:35.328Z,2.27
2018-07-09T13:12:03.568Z,2.37
2018-07-09T13:14:31.830Z,1.73
2018-07-09T13:17:01.279Z,1.60
2018-07-09T13:19:30.387Z,3.03
2018-07-09T13:22:00.126Z,2.27
2018-07-09T13:24:30.068Z,1.97
2018-07-09T13:27:01.652Z,1.70
2018-07-09T13:29:30.173Z,2.70
2018-07-09T13:31:59.018Z,2.40
2018-07-09T13:34:29.314Z,2.50
2018-07-09T13:36:58.724Z,2.00
2018-07-09T13:39:26.958Z,2.70
2018-07-09T13:41:55.221Z,2.30
2018-07-09T13:44:23.776Z,2.60
2018-07-09T13:46:52.277Z,2.63
2018-07-09T13:49:21.659Z,2.50
2018-07-09T13:51:50.177Z,2.97
2018-07-09T13:54:22.040Z,2.67
2018-07-09T13:56:51.804Z,2.83
2018-07-09T13:59:21.895Z,2.43
2018-07-09T14:01:53.824Z,3.40
2018-07-09T14:06:55.478Z,2.60
2018-07-09T14:09:23.809Z,2.47
2018-07-09T14:11:52.081Z,2.17
2018-07-09T14:14:22.429Z,2.00
2018-07-09T14:16:50.761Z,2.50
2018-07-09T14:20:38.436Z,1.93
2018-07-09T14:23:07.593Z,2.50
2018-07-09T14:25:35.914Z,2.70
2018-07-09T14:28:04.173Z,2.53
2018-07-09T14:30:32.474Z,1.80
2018-07-09T14:33:00.737Z,2.37
2018-07-09T14:35:28.906Z,2.07
2018-07-09T14:37:57.330Z,2.33
2018-07-09T14:40:25.762Z,2.37
2018-07-09T14:42:54.120Z,2.77
2018-07-09T14:45:22.348Z,2.60
2018-07-09T14:47:51.253Z,2.87
2018-07-09T14:50:20.320Z,2.10
2018-07-09T14:52:49.565Z,2.90
2018-07-09T14:55:18.612Z,3.17
2018-07-09T14:57:46.999Z,1.90
2018-07-09T15:00:19.483Z,3.00
2018-07-09T15:02:50.201Z,2.10
2018-07-09T15:05:20.344Z,2.60
2018-07-09T15:07:50.456Z,1.83
2018-07-09T15:10:21.404Z,2.10
2018-07-09T15:12:51.497Z,2.07
2018-07-09T15:15:20.858Z,2.60
2018-07-09T15:17:52.808Z,1.80
2018-07-09T15:20:23.516Z,2.57
2018-07-09T15:22:52.180Z,2.47
2018-07-09T15:25:23.756Z,2.00
2018-07-09T15:27:52.539Z,2.47
2018-07-09T15:30:21.953Z,2.83
2018-07-09T15:32:51.823Z,3.00
2018-07-09T15:35:20.176Z,2.20
2018-07-09T15:37:53.056Z,2.27
2018-07-09T15:40:23.068Z,2.50
2018-07-09T15:42:51.773Z,2.70
2018-07-09T15:45:20.367Z,2.37
2018-07-09T15:47:50.752Z,2.90
2018-07-09T15:50:21.945Z,2.83
2018-07-09T15:52:51.997Z,2.22
2018-07-09T15:55:22.190Z,1.80
2018-07-09T15:57:54.072Z,2.00
2018-07-09T16:00:22.455Z,2.40
2018-07-09T16:02:52.542Z,2.90
2018-07-09T16:05:21.617Z,3.20
2018-07-09T16:07:51.400Z,2.20
2018-07-09T16:10:23.244Z,2.30
2018-07-09T16:12:53.290Z,1.85
2018-07-09T16:15:21.311Z,1.93
2018-07-09T16:17:49.539Z,1.93
2018-07-09T16:20:17.770Z,1.67
2018-07-09T16:22:46.047Z,2.80
2018-07-09T16:25:14.215Z,2.35
2018-07-09T16:27:42.409Z,2.35
2018-07-09T16:30:10.575Z,2.77
2018-07-09T16:32:38.824Z,2.40
2018-07-09T16:35:07.085Z,2.22
2018-07-09T16:37:35.287Z,2.70
2018-07-09T16:40:03.486Z,2.37
2018-07-09T16:42:31.690Z,2.58
2018-07-09T16:44:59.877Z,2.75
2018-07-09T16:47:28.103Z,3.27
2018-07-09T16:49:56.592Z,2.65
2018-07-09T16:52:24.772Z,3.20
2018-07-09T16:54:53.056Z,3.02
2018-07-09T16:57:21.185Z,2.98
2018-07-09T16:59:49.476Z,2.98
2018-07-09T17:02:17.649Z,2.85
2018-07-09T17:04:45.809Z,2.80
2018-07-09T17:07:14.008Z,2.00
2018-07-09T17:09:42.194Z,3.10
2018-07-09T17:12:10.425Z,2.15
2018-07-09T17:14:38.687Z,3.25
2018-07-09T17:17:07.029Z,2.40
2018-07-09T17:19:35.372Z,2.65
2018-07-09T17:22:03.571Z,2.97
2018-07-09T17:24:31.772Z,2.03
2018-07-09T17:27:00.096Z,2.67
2018-07-09T17:29:28.168Z,3.00
2018-07-09T17:31:56.328Z,2.77
2018-07-09T17:34:24.540Z,2.42
2018-07-09T17:36:52.749Z,3.50
2018-07-09T17:39:20.956Z,2.95
2018-07-09T17:41:49.180Z,2.95
2018-07-09T17:44:17.372Z,2.17
2018-07-09T17:46:45.542Z,3.10
2018-07-09T17:49:13.720Z,2.37
2018-07-09T17:51:41.924Z,3.17
2018-07-09T17:54:10.320Z,3.20
2018-07-09T17:56:38.529Z,2.50
2018-07-09T17:59:06.740Z,3.33
2018-07-09T18:01:34.907Z,3.95
2018-07-09T18:04:03.136Z,3.08
2018-07-09T18:06:31.280Z,3.83
2018-07-09T18:08:59.419Z,2.65
2018-07-09T18:11:27.936Z,2.92
2018-07-09T18:13:56.179Z,2.70
2018-07-09T18:16:24.340Z,2.65
2018-07-09T18:18:52.557Z,2.92
2018-07-09T18:21:20.770Z,2.70
2018-07-09T18:23:49.377Z,3.40
2018-07-09T18:26:17.660Z,3.08
2018-07-09T18:28:45.875Z,3.22
2018-07-09T18:31:14.055Z,3.80
2018-07-09T18:33:42.331Z,3.30
2018-07-09T18:36:10.532Z,2.85
2018-07-09T18:38:38.860Z,3.27
2018-07-09T18:41:07.115Z,2.50
2018-07-09T18:43:35.343Z,2.90
2018-07-09T18:46:03.656Z,3.25
2018-07-09T18:48:31.931Z,3.75
2018-07-09T18:51:00.112Z,2.70
2018-07-09T18:53:28.359Z,3.12
2018-07-09T18:55:56.568Z,3.72
2018-07-09T18:58:24.863Z,3.50
2018-07-09T19:00:53.126Z,3.10
2018-07-09T19:03:21.344Z,2.98
2018-07-09T19:07:14.525Z,3.60
2018-07-09T19:09:42.792Z,3.83
2018-07-09T19:12:11.101Z,3.50
2018-07-09T19:14:45.813Z,3.20
2018-07-09T19:18:25.253Z,2.42
2018-07-09T19:21:38.240Z,3.27
2018-07-09T19:24:06.603Z,3.27
2018-07-09T19:26:34.066Z,3.37
2018-07-09T19:29:01.349Z,3.33
2018-07-09T19:31:28.584Z,3.37
2018-07-09T19:33:55.852Z,3.83
2018-07-09T19:36:23.108Z,3.10
2018-07-09T19:38:50.320Z,3.83
2018-07-09T19:41:17.575Z,3.15
2018-07-09T19:43:44.849Z,3.17
2018-07-09T19:46:12.070Z,3.20
2018-07-09T19:48:39.517Z,3.12
2018-07-09T19:51:07.003Z,3.37
2018-07-09T19:53:34.702Z,3.25
2018-07-09T19:56:01.948Z,3.87
2018-07-09T19:58:29.162Z,3.67
2018-07-09T20:00:56.417Z,3.65
2018-07-09T20:03:23.761Z,3.02
2018-07-09T20:05:50.970Z,3.37
2018-07-09T20:08:19.118Z,4.03
2018-07-09T20:10:51.564Z,3.40
2018-07-09T20:13:24.248Z,3.37
2018-07-09T20:15:56.724Z,3.50
2018-07-09T20:18:23.979Z,3.50
2018-07-09T20:20:51.257Z,3.58
2018-07-09T20:23:18.531Z,4.12
2018-07-09T20:25:45.743Z,4.08
2018-07-09T20:28:13.004Z,4.00
2018-07-09T20:30:40.240Z,3.98
2018-07-09T20:33:07.496Z,3.17
2018-07-09T20:35:34.755Z,3.50
2018-07-09T20:38:01.972Z,4.22
2018-07-09T20:40:29.215Z,3.27
2018-07-09T20:42:56.464Z,3.20
2018-07-09T20:45:23.668Z,4.33
2018-07-09T20:47:51.889Z,3.52
2018-07-09T20:50:19.089Z,3.58
2018-07-09T20:52:46.340Z,3.05
2018-07-09T20:55:14.484Z,3.55
2018-07-09T20:57:41.778Z,2.72
2018-07-09T21:00:10.036Z,2.92
2018-07-09T21:02:37.471Z,3.00
2018-07-09T21:05:04.685Z,3.40
2018-07-09T21:07:33.155Z,3.47
2018-07-09T21:10:00.365Z,3.02
2018-07-09T21:12:27.589Z,3.12
2018-07-09T21:14:54.859Z,3.20
2018-07-09T21:17:22.063Z,2.72
2018-07-09T21:19:49.264Z,2.45
2018-07-09T21:22:16.531Z,2.80
2018-07-09T21:24:43.752Z,3.33
2018-07-09T21:27:11.073Z,3.58
2018-07-09T21:29:38.400Z,3.70
2018-07-09T21:32:05.690Z,3.15
2018-07-09T21:34:32.991Z,3.70
2018-07-09T21:37:00.244Z,3.25
2018-07-09T21:39:27.496Z,3.40
2018-07-09T21:41:54.766Z,2.95
2018-07-09T21:44:22.034Z,3.40
2018-07-09T21:46:49.254Z,2.80
2018-07-09T21:49:16.584Z,3.37
2018-07-09T21:51:43.790Z,3.80
2018-07-09T21:54:11.190Z,3.83
2018-07-09T21:56:38.583Z,3.50
2018-07-09T21:59:05.796Z,3.65
2018-07-09T22:01:33.013Z,3.85
2018-07-09T22:04:00.260Z,3.52
2018-07-09T22:06:27.516Z,3.67
2018-07-09T22:08:54.713Z,4.97
2018-07-09T22:11:21.925Z,3.80
2018-07-09T22:13:49.485Z,4.35
2018-07-09T22:16:17.026Z,3.92
2018-07-09T22:18:44.309Z,3.27
2018-07-09T22:21:11.563Z,4.60
2018-07-09T22:23:38.763Z,4.92
2018-07-09T22:26:06.006Z,3.92
2018-07-09T22:28:33.405Z,4.42
2018-07-09T22:31:03.678Z,5.03
2018-07-09T22:33:31.900Z,5.15
2018-07-09T22:36:02.593Z,3.80
2018-07-09T22:38:30.776Z,5.15
2018-07-09T22:40:59.024Z,4.55
2018-07-09T22:43:38.585Z,3.35
2018-07-09T22:46:06.744Z,4.28
2018-07-09T22:48:34.968Z,3.40
2018-07-09T22:51:03.207Z,3.60
2018-07-09T22:53:31.349Z,3.92
2018-07-09T22:56:13.324Z,4.60
2018-07-09T22:58:42.398Z,4.17
2018-07-09T23:01:10.743Z,5.12
2018-07-09T23:03:39.160Z,3.62
2018-07-09T23:06:07.357Z,4.53
2018-07-09T23:08:35.571Z,4.50
2018-07-09T23:13:19.948Z,3.83
2018-07-09T23:16:56.203Z,3.10
2018-07-09T23:22:20.788Z,3.22
2018-07-09T23:24:50.467Z,3.95
2018-07-09T23:27:19.800Z,3.75
2018-07-09T23:29:48.057Z,3.90
2018-07-09T23:32:21.614Z,3.72
2018-07-09T23:34:49.773Z,3.98
2018-07-09T23:37:18.509Z,4.00
2018-07-09T23:42:26.025Z,3.65
2018-07-09T23:44:57.069Z,4.12
2018-07-09T23:47:25.911Z,3.95
2018-07-09T23:49:55.677Z,3.92
2018-07-09T23:52:26.444Z,3.80
2018-07-09T23:54:55.955Z,4.00
